sensor_id;sensor_type;location;lat;lon;timestamp;P1;durP1;ratioP1;P2;durP2;ratioP2
66567;SDS011;53422;49.296;6.900;2023-05-16T00:00:58;9.00;;;4.32;;
66567;SDS011;53422;49.296;6.900;2023-05-16T00:03:25;9.45;;;3.75;;
66567;SDS011;53422;49.296;6.900;2023-05-16T00:05:51;9.32;;;4.15;;
66567;SDS011;53422;49.296;6.900;2023-05-16T00:08:17;10.45;;;4.38;;
66567;SDS011;53422;49.296;6.900;2023-05-16T00:10:42;9.27;;;3.95;;
66567;SDS011;53422;49.296;6.900;2023-05-16T00:13:08;9.05;;;4.20;;
66567;SDS011;53422;49.296;6.900;2023-05-16T00:15:34;8.48;;;3.75;;
66567;SDS011;53422;49.296;6.900;2023-05-16T00:17:59;9.00;;;3.78;;
66567;SDS011;53422;49.296;6.900;2023-05-16T00:20:25;8.27;;;3.65;;
66567;SDS011;53422;49.296;6.900;2023-05-16T00:22:52;8.98;;;3.55;;
66567;SDS011;53422;49.296;6.900;2023-05-16T00:25:18;7.88;;;3.70;;
66567;SDS011;53422;49.296;6.900;2023-05-16T00:27:44;10.30;;;3.92;;
66567;SDS011;53422;49.296;6.900;2023-05-16T00:30:09;7.57;;;3.70;;
66567;SDS011;53422;49.296;6.900;2023-05-16T00:32:36;8.50;;;3.53;;
66567;SDS011;53422;49.296;6.900;2023-05-16T00:35:02;8.80;;;3.42;;
66567;SDS011;53422;49.296;6.900;2023-05-16T00:37:27;9.95;;;4.05;;
66567;SDS011;53422;49.296;6.900;2023-05-16T00:39:53;8.30;;;3.75;;
66567;SDS011;53422;49.296;6.900;2023-05-16T00:42:19;11.85;;;3.50;;
66567;SDS011;53422;49.296;6.900;2023-05-16T00:44:45;8.70;;;4.03;;
66567;SDS011;53422;49.296;6.900;2023-05-16T00:47:12;9.38;;;3.78;;
66567;SDS011;53422;49.296;6.900;2023-05-16T00:49:37;6.38;;;3.20;;
66567;SDS011;53422;49.296;6.900;2023-05-16T00:52:03;5.85;;;3.13;;
66567;SDS011;53422;49.296;6.900;2023-05-16T00:54:29;8.20;;;3.33;;
66567;SDS011;53422;49.296;6.900;2023-05-16T00:56:55;6.88;;;3.42;;
66567;SDS011;53422;49.296;6.900;2023-05-16T00:59:22;6.88;;;3.10;;
66567;SDS011;53422;49.296;6.900;2023-05-16T01:01:48;7.63;;;3.50;;
66567;SDS011;53422;49.296;6.900;2023-05-16T01:04:16;9.70;;;4.28;;
66567;SDS011;53422;49.296;6.900;2023-05-16T01:06:42;9.80;;;3.15;;
66567;SDS011;53422;49.296;6.900;2023-05-16T01:09:08;7.05;;;2.75;;
66567;SDS011;53422;49.296;6.900;2023-05-16T01:11:42;6.65;;;3.35;;
66567;SDS011;53422;49.296;6.900;2023-05-16T01:14:16;6.63;;;3.28;;
66567;SDS011;53422;49.296;6.900;2023-05-16T01:17:25;7.10;;;3.05;;
66567;SDS011;53422;49.296;6.900;2023-05-16T01:25:25;6.05;;;2.95;;
66567;SDS011;53422;49.296;6.900;2023-05-16T01:28:04;7.68;;;3.33;;
66567;SDS011;53422;49.296;6.900;2023-05-16T01:30:32;6.65;;;3.05;;
66567;SDS011;53422;49.296;6.900;2023-05-16T01:32:59;5.97;;;2.40;;
66567;SDS011;53422;49.296;6.900;2023-05-16T01:35:25;6.88;;;3.05;;
66567;SDS011;53422;49.296;6.900;2023-05-16T01:37:56;6.70;;;2.75;;
66567;SDS011;53422;49.296;6.900;2023-05-16T01:40:31;7.05;;;2.80;;
66567;SDS011;53422;49.296;6.900;2023-05-16T01:43:10;4.70;;;2.65;;
66567;SDS011;53422;49.296;6.900;2023-05-16T01:45:41;7.22;;;2.75;;
66567;SDS011;53422;49.296;6.900;2023-05-16T01:48:15;6.10;;;3.05;;
66567;SDS011;53422;49.296;6.900;2023-05-16T01:50:47;6.65;;;3.30;;
66567;SDS011;53422;49.296;6.900;2023-05-16T01:53:21;8.95;;;3.13;;
66567;SDS011;53422;49.296;6.900;2023-05-16T01:55:51;8.07;;;3.03;;
66567;SDS011;53422;49.296;6.900;2023-05-16T01:58:20;7.85;;;3.08;;
66567;SDS011;53422;49.296;6.900;2023-05-16T02:00:49;6.88;;;3.08;;
66567;SDS011;53422;49.296;6.900;2023-05-16T02:03:16;7.50;;;3.08;;
66567;SDS011;53422;49.296;6.900;2023-05-16T02:05:42;5.80;;;2.65;;
66567;SDS011;53422;49.296;6.900;2023-05-16T02:08:08;8.00;;;2.70;;
66567;SDS011;53422;49.296;6.900;2023-05-16T02:10:34;7.45;;;3.05;;
66567;SDS011;53422;49.296;6.900;2023-05-16T02:12:59;9.68;;;3.13;;
66567;SDS011;53422;49.296;6.900;2023-05-16T02:15:25;6.18;;;3.38;;
66567;SDS011;53422;49.296;6.900;2023-05-16T02:17:51;5.25;;;3.00;;
66567;SDS011;53422;49.296;6.900;2023-05-16T02:20:16;6.88;;;2.80;;
66567;SDS011;53422;49.296;6.900;2023-05-16T02:22:42;6.15;;;2.90;;
66567;SDS011;53422;49.296;6.900;2023-05-16T02:25:08;5.10;;;2.42;;
66567;SDS011;53422;49.296;6.900;2023-05-16T02:27:34;5.35;;;2.55;;
66567;SDS011;53422;49.296;6.900;2023-05-16T02:30:00;5.30;;;2.63;;
66567;SDS011;53422;49.296;6.900;2023-05-16T02:32:26;6.20;;;2.65;;
66567;SDS011;53422;49.296;6.900;2023-05-16T02:34:51;8.27;;;2.55;;
66567;SDS011;53422;49.296;6.900;2023-05-16T02:37:17;4.70;;;2.00;;
66567;SDS011;53422;49.296;6.900;2023-05-16T02:39:43;6.85;;;2.75;;
66567;SDS011;53422;49.296;6.900;2023-05-16T02:42:08;6.85;;;2.47;;
66567;SDS011;53422;49.296;6.900;2023-05-16T02:44:34;4.85;;;2.78;;
66567;SDS011;53422;49.296;6.900;2023-05-16T02:47:00;4.63;;;2.63;;
66567;SDS011;53422;49.296;6.900;2023-05-16T02:49:26;6.65;;;2.85;;
66567;SDS011;53422;49.296;6.900;2023-05-16T02:51:51;5.45;;;2.60;;
66567;SDS011;53422;49.296;6.900;2023-05-16T02:54:17;5.80;;;2.53;;
66567;SDS011;53422;49.296;6.900;2023-05-16T02:56:42;4.32;;;2.20;;
66567;SDS011;53422;49.296;6.900;2023-05-16T02:59:09;5.00;;;2.53;;
66567;SDS011;53422;49.296;6.900;2023-05-16T03:01:35;4.63;;;2.25;;
66567;SDS011;53422;49.296;6.900;2023-05-16T03:04:01;6.72;;;2.55;;
66567;SDS011;53422;49.296;6.900;2023-05-16T03:06:27;5.40;;;2.42;;
66567;SDS011;53422;49.296;6.900;2023-05-16T03:08:54;8.27;;;2.42;;
66567;SDS011;53422;49.296;6.900;2023-05-16T03:11:20;4.45;;;2.20;;
66567;SDS011;53422;49.296;6.900;2023-05-16T03:13:46;4.78;;;2.33;;
66567;SDS011;53422;49.296;6.900;2023-05-16T03:16:12;10.73;;;2.80;;
66567;SDS011;53422;49.296;6.900;2023-05-16T03:18:39;5.30;;;2.13;;
66567;SDS011;53422;49.296;6.900;2023-05-16T03:21:05;5.88;;;2.58;;
66567;SDS011;53422;49.296;6.900;2023-05-16T03:23:31;4.38;;;2.17;;
66567;SDS011;53422;49.296;6.900;2023-05-16T03:25:56;4.43;;;2.15;;
66567;SDS011;53422;49.296;6.900;2023-05-16T03:28:22;7.05;;;2.20;;
66567;SDS011;53422;49.296;6.900;2023-05-16T03:30:48;5.68;;;2.25;;
66567;SDS011;53422;49.296;6.900;2023-05-16T03:33:14;8.27;;;2.38;;
66567;SDS011;53422;49.296;6.900;2023-05-16T03:35:40;5.38;;;2.45;;
66567;SDS011;53422;49.296;6.900;2023-05-16T03:38:06;6.03;;;2.47;;
66567;SDS011;53422;49.296;6.900;2023-05-16T03:40:32;5.32;;;2.65;;
66567;SDS011;53422;49.296;6.900;2023-05-16T03:42:57;4.93;;;2.05;;
66567;SDS011;53422;49.296;6.900;2023-05-16T03:45:23;4.65;;;2.17;;
66567;SDS011;53422;49.296;6.900;2023-05-16T03:47:49;5.93;;;2.25;;
66567;SDS011;53422;49.296;6.900;2023-05-16T03:50:15;4.57;;;2.20;;
66567;SDS011;53422;49.296;6.900;2023-05-16T03:52:41;4.88;;;2.45;;
66567;SDS011;53422;49.296;6.900;2023-05-16T03:55:07;4.88;;;2.20;;
66567;SDS011;53422;49.296;6.900;2023-05-16T03:57:33;5.95;;;2.22;;
66567;SDS011;53422;49.296;6.900;2023-05-16T04:00:00;5.05;;;2.17;;
66567;SDS011;53422;49.296;6.900;2023-05-16T04:02:26;5.53;;;2.50;;
66567;SDS011;53422;49.296;6.900;2023-05-16T04:04:51;8.10;;;2.63;;
66567;SDS011;53422;49.296;6.900;2023-05-16T04:07:17;5.25;;;2.50;;
66567;SDS011;53422;49.296;6.900;2023-05-16T04:09:43;4.55;;;2.10;;
66567;SDS011;53422;49.296;6.900;2023-05-16T04:12:09;4.85;;;2.30;;
66567;SDS011;53422;49.296;6.900;2023-05-16T04:14:34;4.95;;;1.88;;
66567;SDS011;53422;49.296;6.900;2023-05-16T04:17:00;4.63;;;2.42;;
66567;SDS011;53422;49.296;6.900;2023-05-16T04:19:26;5.72;;;2.95;;
66567;SDS011;53422;49.296;6.900;2023-05-16T04:21:51;5.65;;;2.22;;
66567;SDS011;53422;49.296;6.900;2023-05-16T04:24:17;5.28;;;2.55;;
66567;SDS011;53422;49.296;6.900;2023-05-16T04:26:43;5.78;;;2.88;;
66567;SDS011;53422;49.296;6.900;2023-05-16T04:29:09;4.35;;;2.03;;
66567;SDS011;53422;49.296;6.900;2023-05-16T04:31:35;4.00;;;2.17;;
66567;SDS011;53422;49.296;6.900;2023-05-16T04:34:02;4.35;;;2.22;;
66567;SDS011;53422;49.296;6.900;2023-05-16T04:36:27;4.13;;;2.05;;
66567;SDS011;53422;49.296;6.900;2023-05-16T04:38:54;4.13;;;1.88;;
66567;SDS011;53422;49.296;6.900;2023-05-16T04:41:21;5.15;;;2.28;;
66567;SDS011;53422;49.296;6.900;2023-05-16T04:43:47;4.03;;;2.20;;
66567;SDS011;53422;49.296;6.900;2023-05-16T04:46:13;2.92;;;1.80;;
66567;SDS011;53422;49.296;6.900;2023-05-16T04:48:42;4.13;;;1.63;;
66567;SDS011;53422;49.296;6.900;2023-05-16T04:51:07;3.22;;;1.73;;
66567;SDS011;53422;49.296;6.900;2023-05-16T04:53:33;3.22;;;1.45;;
66567;SDS011;53422;49.296;6.900;2023-05-16T04:55:59;3.88;;;1.30;;
66567;SDS011;53422;49.296;6.900;2023-05-16T04:58:25;3.90;;;1.80;;
66567;SDS011;53422;49.296;6.900;2023-05-16T05:00:51;2.70;;;1.45;;
66567;SDS011;53422;49.296;6.900;2023-05-16T05:03:17;4.18;;;1.45;;
66567;SDS011;53422;49.296;6.900;2023-05-16T05:05:42;3.08;;;1.60;;
66567;SDS011;53422;49.296;6.900;2023-05-16T05:08:08;3.30;;;1.58;;
66567;SDS011;53422;49.296;6.900;2023-05-16T05:10:34;2.95;;;1.58;;
66567;SDS011;53422;49.296;6.900;2023-05-16T05:13:00;3.53;;;1.80;;
66567;SDS011;53422;49.296;6.900;2023-05-16T05:15:26;3.35;;;1.80;;
66567;SDS011;53422;49.296;6.900;2023-05-16T05:17:52;3.60;;;1.75;;
66567;SDS011;53422;49.296;6.900;2023-05-16T05:20:17;3.95;;;1.90;;
66567;SDS011;53422;49.296;6.900;2023-05-16T05:22:43;3.50;;;1.50;;
66567;SDS011;53422;49.296;6.900;2023-05-16T05:25:09;3.10;;;1.45;;
66567;SDS011;53422;49.296;6.900;2023-05-16T05:27:35;4.28;;;1.50;;
66567;SDS011;53422;49.296;6.900;2023-05-16T05:30:01;3.60;;;1.85;;
66567;SDS011;53422;49.296;6.900;2023-05-16T05:32:27;2.38;;;1.33;;
66567;SDS011;53422;49.296;6.900;2023-05-16T05:34:53;4.65;;;1.33;;
66567;SDS011;53422;49.296;6.900;2023-05-16T05:37:18;2.20;;;1.25;;
66567;SDS011;53422;49.296;6.900;2023-05-16T05:39:44;2.50;;;1.00;;
66567;SDS011;53422;49.296;6.900;2023-05-16T05:42:10;2.47;;;1.40;;
66567;SDS011;53422;49.296;6.900;2023-05-16T05:44:36;3.50;;;1.10;;
66567;SDS011;53422;49.296;6.900;2023-05-16T05:47:02;2.17;;;1.00;;
66567;SDS011;53422;49.296;6.900;2023-05-16T05:49:31;5.13;;;1.27;;
66567;SDS011;53422;49.296;6.900;2023-05-16T05:51:58;2.63;;;0.95;;
66567;SDS011;53422;49.296;6.900;2023-05-16T05:54:24;2.35;;;1.08;;
66567;SDS011;53422;49.296;6.900;2023-05-16T05:56:50;0.93;;;0.68;;
66567;SDS011;53422;49.296;6.900;2023-05-16T05:59:15;1.60;;;0.80;;
66567;SDS011;53422;49.296;6.900;2023-05-16T06:01:41;1.58;;;0.70;;
66567;SDS011;53422;49.296;6.900;2023-05-16T06:04:08;1.40;;;0.70;;
66567;SDS011;53422;49.296;6.900;2023-05-16T06:06:34;1.48;;;0.88;;
66567;SDS011;53422;49.296;6.900;2023-05-16T06:09:00;2.65;;;0.60;;
66567;SDS011;53422;49.296;6.900;2023-05-16T06:11:26;1.08;;;0.68;;
66567;SDS011;53422;49.296;6.900;2023-05-16T06:13:51;1.08;;;0.70;;
66567;SDS011;53422;49.296;6.900;2023-05-16T06:16:17;1.27;;;0.52;;
66567;SDS011;53422;49.296;6.900;2023-05-16T06:18:43;1.08;;;1.00;;
66567;SDS011;53422;49.296;6.900;2023-05-16T06:21:09;0.90;;;0.43;;
66567;SDS011;53422;49.296;6.900;2023-05-16T06:23:35;2.60;;;0.63;;
66567;SDS011;53422;49.296;6.900;2023-05-16T06:26:01;1.38;;;0.63;;
66567;SDS011;53422;49.296;6.900;2023-05-16T06:28:28;0.90;;;0.50;;
66567;SDS011;53422;49.296;6.900;2023-05-16T06:30:54;0.73;;;0.40;;
66567;SDS011;53422;49.296;6.900;2023-05-16T06:33:19;1.50;;;0.40;;
66567;SDS011;53422;49.296;6.900;2023-05-16T06:35:45;0.82;;;0.60;;
66567;SDS011;53422;49.296;6.900;2023-05-16T06:38:13;1.70;;;0.55;;
66567;SDS011;53422;49.296;6.900;2023-05-16T06:40:39;1.35;;;0.68;;
66567;SDS011;53422;49.296;6.900;2023-05-16T06:43:05;1.88;;;0.57;;
66567;SDS011;53422;49.296;6.900;2023-05-16T06:45:31;2.55;;;0.80;;
66567;SDS011;53422;49.296;6.900;2023-05-16T06:47:56;1.55;;;0.80;;
66567;SDS011;53422;49.296;6.900;2023-05-16T06:50:22;0.52;;;0.30;;
66567;SDS011;53422;49.296;6.900;2023-05-16T06:52:48;0.93;;;0.50;;
66567;SDS011;53422;49.296;6.900;2023-05-16T06:55:14;1.40;;;0.70;;
66567;SDS011;53422;49.296;6.900;2023-05-16T06:57:40;1.10;;;0.85;;
66567;SDS011;53422;49.296;6.900;2023-05-16T07:00:06;1.08;;;0.70;;
66567;SDS011;53422;49.296;6.900;2023-05-16T07:02:32;1.02;;;0.60;;
66567;SDS011;53422;49.296;6.900;2023-05-16T07:04:58;1.10;;;0.60;;
66567;SDS011;53422;49.296;6.900;2023-05-16T07:07:23;1.52;;;0.55;;
66567;SDS011;53422;49.296;6.900;2023-05-16T07:09:49;1.13;;;0.60;;
66567;SDS011;53422;49.296;6.900;2023-05-16T07:12:15;0.70;;;0.40;;
66567;SDS011;53422;49.296;6.900;2023-05-16T07:14:41;0.70;;;0.55;;
66567;SDS011;53422;49.296;6.900;2023-05-16T07:17:07;1.48;;;0.70;;
66567;SDS011;53422;49.296;6.900;2023-05-16T07:19:33;1.00;;;0.55;;
66567;SDS011;53422;49.296;6.900;2023-05-16T07:21:59;1.27;;;0.52;;
66567;SDS011;53422;49.296;6.900;2023-05-16T07:24:25;2.85;;;0.73;;
66567;SDS011;53422;49.296;6.900;2023-05-16T07:26:51;0.88;;;0.45;;
66567;SDS011;53422;49.296;6.900;2023-05-16T07:29:16;1.60;;;0.68;;
66567;SDS011;53422;49.296;6.900;2023-05-16T07:31:42;1.20;;;0.60;;
66567;SDS011;53422;49.296;6.900;2023-05-16T07:34:08;1.35;;;0.55;;
66567;SDS011;53422;49.296;6.900;2023-05-16T07:36:35;1.48;;;0.85;;
66567;SDS011;53422;49.296;6.900;2023-05-16T07:39:00;1.58;;;0.90;;
66567;SDS011;53422;49.296;6.900;2023-05-16T07:41:27;1.60;;;0.63;;
66567;SDS011;53422;49.296;6.900;2023-05-16T07:43:53;1.50;;;0.70;;
66567;SDS011;53422;49.296;6.900;2023-05-16T07:46:19;1.80;;;0.80;;
66567;SDS011;53422;49.296;6.900;2023-05-16T07:48:45;0.80;;;0.52;;
66567;SDS011;53422;49.296;6.900;2023-05-16T07:51:10;2.00;;;0.80;;
66567;SDS011;53422;49.296;6.900;2023-05-16T07:53:36;3.33;;;0.95;;
66567;SDS011;53422;49.296;6.900;2023-05-16T07:56:01;2.42;;;1.20;;
66567;SDS011;53422;49.296;6.900;2023-05-16T07:58:27;4.00;;;1.10;;
66567;SDS011;53422;49.296;6.900;2023-05-16T08:00:53;1.33;;;0.70;;
66567;SDS011;53422;49.296;6.900;2023-05-16T08:03:19;2.20;;;0.93;;
66567;SDS011;53422;49.296;6.900;2023-05-16T08:05:45;1.42;;;0.70;;
66567;SDS011;53422;49.296;6.900;2023-05-16T08:08:12;2.28;;;0.82;;
66567;SDS011;53422;49.296;6.900;2023-05-16T08:10:38;1.13;;;0.63;;
66567;SDS011;53422;49.296;6.900;2023-05-16T08:13:04;1.60;;;1.00;;
66567;SDS011;53422;49.296;6.900;2023-05-16T08:15:29;2.05;;;0.80;;
66567;SDS011;53422;49.296;6.900;2023-05-16T08:17:58;2.60;;;0.95;;
66567;SDS011;53422;49.296;6.900;2023-05-16T08:20:24;2.38;;;1.40;;
66567;SDS011;53422;49.296;6.900;2023-05-16T08:22:50;2.65;;;0.88;;
66567;SDS011;53422;49.296;6.900;2023-05-16T08:25:16;2.20;;;1.00;;
66567;SDS011;53422;49.296;6.900;2023-05-16T08:27:43;3.92;;;1.30;;
66567;SDS011;53422;49.296;6.900;2023-05-16T08:30:10;3.25;;;1.13;;
66567;SDS011;53422;49.296;6.900;2023-05-16T08:32:36;1.95;;;1.27;;
66567;SDS011;53422;49.296;6.900;2023-05-16T08:35:02;4.03;;;1.85;;
66567;SDS011;53422;49.296;6.900;2023-05-16T08:37:28;3.80;;;1.60;;
66567;SDS011;53422;49.296;6.900;2023-05-16T08:39:54;4.05;;;1.88;;
66567;SDS011;53422;49.296;6.900;2023-05-16T08:42:20;3.22;;;1.42;;
66567;SDS011;53422;49.296;6.900;2023-05-16T08:44:46;2.88;;;1.50;;
66567;SDS011;53422;49.296;6.900;2023-05-16T08:47:13;1.60;;;1.00;;
66567;SDS011;53422;49.296;6.900;2023-05-16T08:49:48;3.20;;;1.55;;
66567;SDS011;53422;49.296;6.900;2023-05-16T08:52:19;3.65;;;1.65;;
66567;SDS011;53422;49.296;6.900;2023-05-16T08:54:48;3.38;;;1.85;;
66567;SDS011;53422;49.296;6.900;2023-05-16T08:57:15;4.82;;;2.17;;
66567;SDS011;53422;49.296;6.900;2023-05-16T08:59:41;3.60;;;1.63;;
66567;SDS011;53422;49.296;6.900;2023-05-16T09:02:08;3.03;;;1.67;;
66567;SDS011;53422;49.296;6.900;2023-05-16T09:04:33;6.90;;;2.28;;
66567;SDS011;53422;49.296;6.900;2023-05-16T09:07:00;4.20;;;2.13;;
66567;SDS011;53422;49.296;6.900;2023-05-16T09:09:26;4.32;;;2.00;;
66567;SDS011;53422;49.296;6.900;2023-05-16T09:11:52;4.15;;;1.55;;
66567;SDS011;53422;49.296;6.900;2023-05-16T09:14:18;4.68;;;2.17;;
66567;SDS011;53422;49.296;6.900;2023-05-16T09:16:44;5.10;;;2.53;;
66567;SDS011;53422;49.296;6.900;2023-05-16T09:19:26;4.88;;;2.33;;
66567;SDS011;53422;49.296;6.900;2023-05-16T09:22:02;3.97;;;2.25;;
66567;SDS011;53422;49.296;6.900;2023-05-16T09:24:27;6.10;;;2.97;;
66567;SDS011;53422;49.296;6.900;2023-05-16T09:26:53;6.70;;;3.72;;
66567;SDS011;53422;49.296;6.900;2023-05-16T09:29:19;8.27;;;3.28;;
66567;SDS011;53422;49.296;6.900;2023-05-16T09:31:47;7.78;;;3.33;;
66567;SDS011;53422;49.296;6.900;2023-05-16T09:34:13;7.95;;;3.45;;
66567;SDS011;53422;49.296;6.900;2023-05-16T09:36:39;5.85;;;2.67;;
66567;SDS011;53422;49.296;6.900;2023-05-16T09:39:06;8.93;;;3.38;;
66567;SDS011;53422;49.296;6.900;2023-05-16T09:41:34;6.43;;;3.88;;
66567;SDS011;53422;49.296;6.900;2023-05-16T09:44:04;10.38;;;3.80;;
66567;SDS011;53422;49.296;6.900;2023-05-16T09:46:33;5.72;;;3.35;;
66567;SDS011;53422;49.296;6.900;2023-05-16T09:48:59;9.52;;;4.18;;
66567;SDS011;53422;49.296;6.900;2023-05-16T09:51:25;7.70;;;3.70;;
66567;SDS011;53422;49.296;6.900;2023-05-16T09:53:51;7.20;;;3.72;;
66567;SDS011;53422;49.296;6.900;2023-05-16T09:56:17;10.48;;;3.47;;
66567;SDS011;53422;49.296;6.900;2023-05-16T09:58:43;6.35;;;3.03;;
66567;SDS011;53422;49.296;6.900;2023-05-16T10:01:09;9.40;;;4.32;;
66567;SDS011;53422;49.296;6.900;2023-05-16T10:03:36;10.25;;;4.47;;
66567;SDS011;53422;49.296;6.900;2023-05-16T10:06:04;7.35;;;3.45;;
66567;SDS011;53422;49.296;6.900;2023-05-16T10:08:32;10.35;;;3.67;;
66567;SDS011;53422;49.296;6.900;2023-05-16T10:11:03;6.00;;;2.95;;
66567;SDS011;53422;49.296;6.900;2023-05-16T10:13:30;12.23;;;3.65;;
66567;SDS011;53422;49.296;6.900;2023-05-16T10:15:58;5.38;;;2.40;;
66567;SDS011;53422;49.296;6.900;2023-05-16T10:18:29;4.28;;;2.22;;
66567;SDS011;53422;49.296;6.900;2023-05-16T10:20:56;7.70;;;3.72;;
66567;SDS011;53422;49.296;6.900;2023-05-16T10:23:28;7.63;;;3.53;;
66567;SDS011;53422;49.296;6.900;2023-05-16T10:25:56;6.13;;;2.78;;
66567;SDS011;53422;49.296;6.900;2023-05-16T10:28:26;7.60;;;3.60;;
66567;SDS011;53422;49.296;6.900;2023-05-16T10:30:53;6.03;;;3.00;;
66567;SDS011;53422;49.296;6.900;2023-05-16T10:33:19;8.63;;;3.20;;
66567;SDS011;53422;49.296;6.900;2023-05-16T10:35:45;6.93;;;3.58;;
66567;SDS011;53422;49.296;6.900;2023-05-16T10:38:12;8.15;;;4.03;;
66567;SDS011;53422;49.296;6.900;2023-05-16T10:40:40;6.53;;;3.13;;
66567;SDS011;53422;49.296;6.900;2023-05-16T10:43:07;10.05;;;2.95;;
66567;SDS011;53422;49.296;6.900;2023-05-16T10:45:33;8.25;;;3.38;;
66567;SDS011;53422;49.296;6.900;2023-05-16T10:48:04;6.50;;;3.50;;
66567;SDS011;53422;49.296;6.900;2023-05-16T10:53:12;8.68;;;3.80;;
66567;SDS011;53422;49.296;6.900;2023-05-16T10:56:24;6.35;;;3.35;;
66567;SDS011;53422;49.296;6.900;2023-05-16T11:06:28;5.22;;;1.73;;
66567;SDS011;53422;49.296;6.900;2023-05-16T11:09:24;4.30;;;2.45;;
66567;SDS011;53422;49.296;6.900;2023-05-16T11:14:27;5.93;;;2.25;;
66567;SDS011;53422;49.296;6.900;2023-05-16T11:24:39;10.25;;;2.45;;
66567;SDS011;53422;49.296;6.900;2023-05-16T11:27:13;6.90;;;2.63;;
66567;SDS011;53422;49.296;6.900;2023-05-16T11:32:32;3.80;;;2.15;;
66567;SDS011;53422;49.296;6.900;2023-05-16T11:34:59;7.43;;;2.70;;
66567;SDS011;53422;49.296;6.900;2023-05-16T11:37:26;5.60;;;2.38;;
66567;SDS011;53422;49.296;6.900;2023-05-16T11:39:52;5.55;;;2.08;;
66567;SDS011;53422;49.296;6.900;2023-05-16T11:42:22;6.68;;;2.30;;
66567;SDS011;53422;49.296;6.900;2023-05-16T11:44:48;4.30;;;2.10;;
66567;SDS011;53422;49.296;6.900;2023-05-16T11:47:13;7.63;;;2.33;;
66567;SDS011;53422;49.296;6.900;2023-05-16T11:49:39;3.35;;;1.65;;
66567;SDS011;53422;49.296;6.900;2023-05-16T11:52:06;4.00;;;1.98;;
66567;SDS011;53422;49.296;6.900;2023-05-16T11:54:33;4.80;;;1.85;;
66567;SDS011;53422;49.296;6.900;2023-05-16T11:56:59;4.72;;;2.05;;
66567;SDS011;53422;49.296;6.900;2023-05-16T11:59:25;5.60;;;1.85;;
66567;SDS011;53422;49.296;6.900;2023-05-16T12:01:51;5.35;;;1.90;;
66567;SDS011;53422;49.296;6.900;2023-05-16T12:04:17;3.92;;;2.58;;
66567;SDS011;53422;49.296;6.900;2023-05-16T12:06:44;2.95;;;1.90;;
66567;SDS011;53422;49.296;6.900;2023-05-16T12:09:24;4.28;;;2.20;;
66567;SDS011;53422;49.296;6.900;2023-05-16T12:11:50;6.43;;;2.05;;
66567;SDS011;53422;49.296;6.900;2023-05-16T12:14:16;6.82;;;1.90;;
66567;SDS011;53422;49.296;6.900;2023-05-16T12:16:43;3.67;;;2.03;;
66567;SDS011;53422;49.296;6.900;2023-05-16T12:19:10;7.18;;;1.70;;
66567;SDS011;53422;49.296;6.900;2023-05-16T12:21:36;2.60;;;1.10;;
66567;SDS011;53422;49.296;6.900;2023-05-16T12:24:02;4.63;;;1.98;;
66567;SDS011;53422;49.296;6.900;2023-05-16T12:26:32;3.70;;;1.60;;
66567;SDS011;53422;49.296;6.900;2023-05-16T12:28:58;4.32;;;1.63;;
66567;SDS011;53422;49.296;6.900;2023-05-16T12:31:29;4.05;;;1.67;;
66567;SDS011;53422;49.296;6.900;2023-05-16T12:33:56;2.70;;;1.20;;
66567;SDS011;53422;49.296;6.900;2023-05-16T12:36:22;4.78;;;1.42;;
66567;SDS011;53422;49.296;6.900;2023-05-16T12:38:50;5.13;;;1.92;;
66567;SDS011;53422;49.296;6.900;2023-05-16T12:41:18;3.05;;;1.45;;
66567;SDS011;53422;49.296;6.900;2023-05-16T12:43:45;3.25;;;1.40;;
66567;SDS011;53422;49.296;6.900;2023-05-16T12:46:11;2.92;;;1.35;;
66567;SDS011;53422;49.296;6.900;2023-05-16T12:48:37;3.08;;;1.50;;
66567;SDS011;53422;49.296;6.900;2023-05-16T12:51:12;5.38;;;1.95;;
66567;SDS011;53422;49.296;6.900;2023-05-16T12:53:42;3.95;;;1.75;;
66567;SDS011;53422;49.296;6.900;2023-05-16T12:56:10;4.07;;;1.67;;
66567;SDS011;53422;49.296;6.900;2023-05-16T12:58:37;3.33;;;1.58;;
66567;SDS011;53422;49.296;6.900;2023-05-16T13:01:04;3.83;;;1.75;;
66567;SDS011;53422;49.296;6.900;2023-05-16T13:03:30;4.90;;;2.17;;
66567;SDS011;53422;49.296;6.900;2023-05-16T13:05:56;3.63;;;1.70;;
66567;SDS011;53422;49.296;6.900;2023-05-16T13:08:22;1.75;;;1.10;;
66567;SDS011;53422;49.296;6.900;2023-05-16T13:10:48;2.97;;;1.70;;
66567;SDS011;53422;49.296;6.900;2023-05-16T13:13:14;3.92;;;1.75;;
66567;SDS011;53422;49.296;6.900;2023-05-16T13:15:41;2.78;;;1.40;;
66567;SDS011;53422;49.296;6.900;2023-05-16T13:18:07;3.40;;;1.30;;
66567;SDS011;53422;49.296;6.900;2023-05-16T13:20:33;3.85;;;1.80;;
66567;SDS011;53422;49.296;6.900;2023-05-16T13:22:59;5.95;;;1.70;;
66567;SDS011;53422;49.296;6.900;2023-05-16T13:25:24;2.60;;;1.60;;
66567;SDS011;53422;49.296;6.900;2023-05-16T13:27:50;4.13;;;1.60;;
66567;SDS011;53422;49.296;6.900;2023-05-16T13:30:16;3.03;;;1.58;;
66567;SDS011;53422;49.296;6.900;2023-05-16T13:32:41;4.00;;;1.85;;
66567;SDS011;53422;49.296;6.900;2023-05-16T13:35:07;5.68;;;1.77;;
66567;SDS011;53422;49.296;6.900;2023-05-16T13:37:34;2.28;;;1.70;;
66567;SDS011;53422;49.296;6.900;2023-05-16T13:40:01;5.03;;;1.80;;
66567;SDS011;53422;49.296;6.900;2023-05-16T13:42:28;3.25;;;1.45;;
66567;SDS011;53422;49.296;6.900;2023-05-16T13:44:54;4.35;;;1.60;;
66567;SDS011;53422;49.296;6.900;2023-05-16T13:47:20;3.17;;;1.23;;
66567;SDS011;53422;49.296;6.900;2023-05-16T13:49:46;4.75;;;1.52;;
66567;SDS011;53422;49.296;6.900;2023-05-16T13:52:12;3.88;;;1.83;;
66567;SDS011;53422;49.296;6.900;2023-05-16T13:54:38;1.75;;;1.05;;
66567;SDS011;53422;49.296;6.900;2023-05-16T13:57:05;2.85;;;1.23;;
66567;SDS011;53422;49.296;6.900;2023-05-16T13:59:31;3.80;;;1.45;;
66567;SDS011;53422;49.296;6.900;2023-05-16T14:01:57;5.82;;;1.60;;
66567;SDS011;53422;49.296;6.900;2023-05-16T14:04:22;3.65;;;1.70;;
66567;SDS011;53422;49.296;6.900;2023-05-16T14:06:50;4.35;;;1.45;;
66567;SDS011;53422;49.296;6.900;2023-05-16T14:09:15;4.28;;;1.52;;
66567;SDS011;53422;49.296;6.900;2023-05-16T14:11:41;2.72;;;0.77;;
66567;SDS011;53422;49.296;6.900;2023-05-16T14:14:07;6.32;;;1.10;;
66567;SDS011;53422;49.296;6.900;2023-05-16T14:16:32;3.75;;;1.33;;
66567;SDS011;53422;49.296;6.900;2023-05-16T14:18:58;7.20;;;1.20;;
66567;SDS011;53422;49.296;6.900;2023-05-16T14:21:23;1.15;;;0.90;;
66567;SDS011;53422;49.296;6.900;2023-05-16T14:23:50;2.20;;;1.42;;
66567;SDS011;53422;49.296;6.900;2023-05-16T14:26:16;2.95;;;1.10;;
66567;SDS011;53422;49.296;6.900;2023-05-16T14:28:46;1.25;;;0.80;;
66567;SDS011;53422;49.296;6.900;2023-05-16T14:31:12;1.98;;;0.80;;
66567;SDS011;53422;49.296;6.900;2023-05-16T14:33:38;3.20;;;1.02;;
66567;SDS011;53422;49.296;6.900;2023-05-16T14:36:05;2.55;;;1.30;;
66567;SDS011;53422;49.296;6.900;2023-05-16T14:38:31;1.67;;;0.80;;
66567;SDS011;53422;49.296;6.900;2023-05-16T14:40:57;1.30;;;0.70;;
66567;SDS011;53422;49.296;6.900;2023-05-16T14:43:22;3.53;;;1.00;;
66567;SDS011;53422;49.296;6.900;2023-05-16T14:45:48;3.58;;;1.00;;
66567;SDS011;53422;49.296;6.900;2023-05-16T14:48:14;4.05;;;0.93;;
66567;SDS011;53422;49.296;6.900;2023-05-16T14:50:40;3.63;;;1.15;;
66567;SDS011;53422;49.296;6.900;2023-05-16T14:53:06;2.47;;;0.80;;
66567;SDS011;53422;49.296;6.900;2023-05-16T14:55:33;1.92;;;0.77;;
66567;SDS011;53422;49.296;6.900;2023-05-16T14:57:58;2.80;;;1.00;;
66567;SDS011;53422;49.296;6.900;2023-05-16T15:00:24;3.72;;;1.00;;
66567;SDS011;53422;49.296;6.900;2023-05-16T15:02:50;8.80;;;0.90;;
66567;SDS011;53422;49.296;6.900;2023-05-16T15:05:16;4.90;;;1.77;;
66567;SDS011;53422;49.296;6.900;2023-05-16T15:07:42;2.83;;;0.70;;
66567;SDS011;53422;49.296;6.900;2023-05-16T15:10:08;2.42;;;1.00;;
66567;SDS011;53422;49.296;6.900;2023-05-16T15:12:35;2.83;;;1.27;;
66567;SDS011;53422;49.296;6.900;2023-05-16T15:15:00;2.35;;;0.90;;